Terminal Aerodrome Forecast
Issued by NWS

Home | Current Version | Previous Version | Text Only | Print | Product List | Glossary On
Versions: 1 2 3 4 5 6 7 8 9 10 11 12 13 14 15 16 17 18
000
FTUS46 KSTO 312300
TAFSMF
TAF
KSMF 312334Z 0100/0124 33010KT P6SM SKC
     FM010300 VRB04KT P6SM SKC
     FM011200 VRB03KT 4SM BR BKN250
      TEMPO 0114/0118 1/4SM FG BKN001
     FM012000 VRB03KT 6SM HZ BKN200=

USA.gov is the U.S. government's official web portal to all federal, state and local government web resources and services.